5YNEZ HKBU-HKNW
Flight info
| Callsign | 5YNEZ |
|---|---|
| Flight time | N/A |
| Altitude | 11000 |
| Route | 0016S03458E DCT 0024S03504E 0047S03521E 0056S03525E 0105S03552E |
| Aircraft | C208/L-SDFGR/C |
Departure
| Time | 2026-05-08 13:22 |
|---|---|
| Airport | Bungoma Airport (HKBU) |
Arrival
| Time | N/A |
|---|---|
| Airport | Nairobi Wilson Airport (HKNW) |
| Time | Latitude | Longitude | Altitude | Speed | Heading |
|---|---|---|---|---|---|
| 2026-05-08 13:15 | 0.57769 | 34.55863 | 4750 ft | 0 kts | 163° |
| 2026-05-08 13:21 | 0.57775 | 34.55877 | 4753 ft | 9 kts | 22° |
| 2026-05-08 13:21 | 0.57837 | 34.55935 | 4752 ft | 9 kts | 49° |
| 2026-05-08 13:21 | 0.57865 | 34.55925 | 4752 ft | 7 kts | 251° |
| 2026-05-08 13:21 | 0.57855 | 34.55898 | 4755 ft | 10 kts | 250° |
| 2026-05-08 13:22 | 0.57802 | 34.55748 | 4749 ft | 56 kts | 251° |
| 2026-05-08 13:22 | 0.57592 | 34.55160 | 4839 ft | 110 kts | 246° |
| 2026-05-08 13:22 | 0.56981 | 34.54838 | 5305 ft | 114 kts | 162° |
| 2026-05-08 13:22 | 0.56427 | 34.55543 | 5489 ft | 143 kts | 115° |
| 2026-05-08 13:23 | 0.56093 | 34.56446 | 6034 ft | 134 kts | 108° |
| 2026-05-08 13:23 | 0.55815 | 34.57341 | 6535 ft | 135 kts | 107° |
| 2026-05-08 13:23 | 0.55554 | 34.58235 | 6973 ft | 136 kts | 107° |
| 2026-05-08 13:23 | 0.55294 | 34.59142 | 7419 ft | 135 kts | 107° |
| 2026-05-08 13:24 | 0.55035 | 34.60037 | 7877 ft | 133 kts | 107° |
| 2026-05-08 13:24 | 0.54780 | 34.60920 | 8332 ft | 132 kts | 107° |
| 2026-05-08 13:24 | 0.54525 | 34.61797 | 8792 ft | 130 kts | 107° |
| 2026-05-08 13:24 | 0.53966 | 34.62460 | 9223 ft | 129 kts | 152° |
| 2026-05-08 13:25 | 0.53305 | 34.63035 | 9670 ft | 126 kts | 127° |
| 2026-05-08 13:25 | 0.52761 | 34.63705 | 10096 ft | 125 kts | 130° |
| 2026-05-08 13:25 | 0.52184 | 34.64351 | 10502 ft | 125 kts | 130° |
| 2026-05-08 13:25 | 0.51605 | 34.65002 | 10899 ft | 127 kts | 130° |
| 2026-05-08 13:26 | 0.50961 | 34.65732 | 10953 ft | 153 kts | 130° |
| 2026-05-08 13:26 | 0.50217 | 34.66585 | 10956 ft | 171 kts | 130° |
| 2026-05-08 13:26 | 0.49415 | 34.67511 | 10952 ft | 181 kts | 130° |
| 2026-05-08 13:26 | 0.48585 | 34.68482 | 10951 ft | 186 kts | 129° |
| 2026-05-08 13:27 | 0.47746 | 34.69478 | 10950 ft | 189 kts | 129° |
| 2026-05-08 13:27 | 0.46904 | 34.70490 | 10950 ft | 190 kts | 129° |
| 2026-05-08 13:27 | 0.46058 | 34.71512 | 10949 ft | 191 kts | 129° |
| 2026-05-08 13:27 | 0.45222 | 34.72525 | 10954 ft | 191 kts | 129° |
| 2026-05-08 13:28 | 0.44379 | 34.73550 | 10953 ft | 191 kts | 129° |
| 2026-05-08 13:28 | 0.43533 | 34.74581 | 10951 ft | 191 kts | 129° |
| 2026-05-08 13:28 | 0.42689 | 34.75610 | 10953 ft | 191 kts | 129° |
| 2026-05-08 13:28 | 0.41845 | 34.76639 | 10953 ft | 191 kts | 129° |
| 2026-05-08 13:29 | 0.41003 | 34.77666 | 10953 ft | 191 kts | 129° |
| 2026-05-08 13:29 | 0.40163 | 34.78690 | 10955 ft | 190 kts | 129° |
| 2026-05-08 13:29 | 0.39323 | 34.79712 | 10953 ft | 191 kts | 129° |
| 2026-05-08 13:29 | 0.38484 | 34.80738 | 10953 ft | 190 kts | 129° |
| 2026-05-08 13:30 | 0.37655 | 34.81749 | 10955 ft | 190 kts | 129° |
| 2026-05-08 13:30 | 0.36820 | 34.82767 | 10955 ft | 189 kts | 129° |
| 2026-05-08 13:30 | 0.35982 | 34.83783 | 10955 ft | 189 kts | 129° |
| 2026-05-08 13:30 | 0.35143 | 34.84795 | 10953 ft | 189 kts | 129° |
| 2026-05-08 13:31 | 0.34574 | 34.85477 | 10954 ft | 189 kts | 129° |
| 2026-05-08 13:31 | 0.33457 | 34.86820 | 10957 ft | 190 kts | 129° |
| 2026-05-08 13:31 | 0.33184 | 34.87152 | 10959 ft | 190 kts | 129° |